sensor_id;sensor_type;location;lat;lon;timestamp;P1;durP1;ratioP1;P2;durP2;ratioP2
77022;SDS011;65952;51.440;-2.054;2023-10-13T00:01:56;2.85;;;1.50;;
77022;SDS011;65952;51.440;-2.054;2023-10-13T00:04:24;2.60;;;1.50;;
77022;SDS011;65952;51.440;-2.054;2023-10-13T00:06:53;2.80;;;1.50;;
77022;SDS011;65952;51.440;-2.054;2023-10-13T00:09:24;3.05;;;2.40;;
77022;SDS011;65952;51.440;-2.054;2023-10-13T00:11:54;2.50;;;1.50;;
77022;SDS011;65952;51.440;-2.054;2023-10-13T00:14:21;7.93;;;3.20;;
77022;SDS011;65952;51.440;-2.054;2023-10-13T00:16:47;2.67;;;1.50;;
77022;SDS011;65952;51.440;-2.054;2023-10-13T00:19:35;2.40;;;1.50;;
77022;SDS011;65952;51.440;-2.054;2023-10-13T00:22:11;2.88;;;1.50;;
77022;SDS011;65952;51.440;-2.054;2023-10-13T00:24:38;2.22;;;1.50;;
77022;SDS011;65952;51.440;-2.054;2023-10-13T00:27:14;2.17;;;1.50;;
77022;SDS011;65952;51.440;-2.054;2023-10-13T00:30:10;2.80;;;1.50;;
77022;SDS011;65952;51.440;-2.054;2023-10-13T00:32:48;2.85;;;1.55;;
77022;SDS011;65952;51.440;-2.054;2023-10-13T00:35:28;3.58;;;1.50;;
77022;SDS011;65952;51.440;-2.054;2023-10-13T00:38:01;5.28;;;2.10;;
77022;SDS011;65952;51.440;-2.054;2023-10-13T00:40:38;4.03;;;2.30;;
77022;SDS011;65952;51.440;-2.054;2023-10-13T00:43:04;5.95;;;2.25;;
77022;SDS011;65952;51.440;-2.054;2023-10-13T00:45:54;6.30;;;2.65;;
77022;SDS011;65952;51.440;-2.054;2023-10-13T00:48:37;4.93;;;2.58;;
77022;SDS011;65952;51.440;-2.054;2023-10-13T00:51:09;7.43;;;2.53;;
77022;SDS011;65952;51.440;-2.054;2023-10-13T00:54:02;6.20;;;2.90;;
77022;SDS011;65952;51.440;-2.054;2023-10-13T00:56:36;5.15;;;3.20;;
77022;SDS011;65952;51.440;-2.054;2023-10-13T00:59:08;6.88;;;3.40;;
77022;SDS011;65952;51.440;-2.054;2023-10-13T01:01:35;7.32;;;3.38;;
77022;SDS011;65952;51.440;-2.054;2023-10-13T01:04:01;8.52;;;4.00;;
77022;SDS011;65952;51.440;-2.054;2023-10-13T01:06:30;8.15;;;3.85;;
77022;SDS011;65952;51.440;-2.054;2023-10-13T01:08:57;11.15;;;4.03;;
77022;SDS011;65952;51.440;-2.054;2023-10-13T01:11:24;8.43;;;3.72;;
77022;SDS011;65952;51.440;-2.054;2023-10-13T01:13:52;8.73;;;3.90;;
77022;SDS011;65952;51.440;-2.054;2023-10-13T01:16:19;8.75;;;4.10;;
77022;SDS011;65952;51.440;-2.054;2023-10-13T01:18:48;8.68;;;4.22;;
77022;SDS011;65952;51.440;-2.054;2023-10-13T01:21:17;8.43;;;4.00;;
77022;SDS011;65952;51.440;-2.054;2023-10-13T01:23:45;10.70;;;4.13;;
77022;SDS011;65952;51.440;-2.054;2023-10-13T01:26:12;10.75;;;4.55;;
77022;SDS011;65952;51.440;-2.054;2023-10-13T01:28:43;11.13;;;4.15;;
77022;SDS011;65952;51.440;-2.054;2023-10-13T01:31:13;9.82;;;4.40;;
77022;SDS011;65952;51.440;-2.054;2023-10-13T01:33:49;9.55;;;4.40;;
77022;SDS011;65952;51.440;-2.054;2023-10-13T01:36:18;9.55;;;4.13;;
77022;SDS011;65952;51.440;-2.054;2023-10-13T01:38:44;15.65;;;5.22;;
77022;SDS011;65952;51.440;-2.054;2023-10-13T01:41:09;10.60;;;4.55;;
77022;SDS011;65952;51.440;-2.054;2023-10-13T01:43:34;9.20;;;4.20;;
77022;SDS011;65952;51.440;-2.054;2023-10-13T01:46:00;12.20;;;4.55;;
77022;SDS011;65952;51.440;-2.054;2023-10-13T01:48:27;9.98;;;4.15;;
77022;SDS011;65952;51.440;-2.054;2023-10-13T01:50:55;7.68;;;4.40;;
77022;SDS011;65952;51.440;-2.054;2023-10-13T01:53:24;10.75;;;4.53;;
77022;SDS011;65952;51.440;-2.054;2023-10-13T01:55:54;9.68;;;4.75;;
77022;SDS011;65952;51.440;-2.054;2023-10-13T01:58:22;13.15;;;4.82;;
77022;SDS011;65952;51.440;-2.054;2023-10-13T02:00:48;11.40;;;4.70;;
77022;SDS011;65952;51.440;-2.054;2023-10-13T02:03:14;9.60;;;5.00;;
77022;SDS011;65952;51.440;-2.054;2023-10-13T02:05:42;8.93;;;4.47;;
77022;SDS011;65952;51.440;-2.054;2023-10-13T02:08:17;13.98;;;4.88;;
77022;SDS011;65952;51.440;-2.054;2023-10-13T02:10:50;10.98;;;5.30;;
77022;SDS011;65952;51.440;-2.054;2023-10-13T02:13:19;11.50;;;5.00;;
77022;SDS011;65952;51.440;-2.054;2023-10-13T02:15:47;14.80;;;5.68;;
77022;SDS011;65952;51.440;-2.054;2023-10-13T02:18:18;12.00;;;5.28;;
77022;SDS011;65952;51.440;-2.054;2023-10-13T02:21:03;13.85;;;5.53;;
77022;SDS011;65952;51.440;-2.054;2023-10-13T02:23:37;10.93;;;5.35;;
77022;SDS011;65952;51.440;-2.054;2023-10-13T02:26:11;13.32;;;5.90;;
77022;SDS011;65952;51.440;-2.054;2023-10-13T02:28:41;12.98;;;6.50;;
77022;SDS011;65952;51.440;-2.054;2023-10-13T02:31:07;16.90;;;6.30;;
77022;SDS011;65952;51.440;-2.054;2023-10-13T02:33:33;13.82;;;6.45;;
77022;SDS011;65952;51.440;-2.054;2023-10-13T02:36:00;12.48;;;6.65;;
77022;SDS011;65952;51.440;-2.054;2023-10-13T02:38:30;19.17;;;7.80;;
77022;SDS011;65952;51.440;-2.054;2023-10-13T02:41:11;16.67;;;6.80;;
77022;SDS011;65952;51.440;-2.054;2023-10-13T02:43:47;13.60;;;7.00;;
77022;SDS011;65952;51.440;-2.054;2023-10-13T02:46:12;14.27;;;6.70;;
77022;SDS011;65952;51.440;-2.054;2023-10-13T02:48:41;13.95;;;6.72;;
77022;SDS011;65952;51.440;-2.054;2023-10-13T02:51:07;16.52;;;7.57;;
77022;SDS011;65952;51.440;-2.054;2023-10-13T02:53:46;15.93;;;7.43;;
77022;SDS011;65952;51.440;-2.054;2023-10-13T02:56:16;15.38;;;7.15;;
77022;SDS011;65952;51.440;-2.054;2023-10-13T02:58:52;14.60;;;6.60;;
77022;SDS011;65952;51.440;-2.054;2023-10-13T03:01:38;19.27;;;7.80;;
77022;SDS011;65952;51.440;-2.054;2023-10-13T03:04:03;16.42;;;7.10;;
77022;SDS011;65952;51.440;-2.054;2023-10-13T03:06:30;21.67;;;7.32;;
77022;SDS011;65952;51.440;-2.054;2023-10-13T03:09:03;16.08;;;6.25;;
77022;SDS011;65952;51.440;-2.054;2023-10-13T03:11:42;16.90;;;7.13;;
77022;SDS011;65952;51.440;-2.054;2023-10-13T03:14:13;12.35;;;7.05;;
77022;SDS011;65952;51.440;-2.054;2023-10-13T03:16:57;20.98;;;6.85;;
77022;SDS011;65952;51.440;-2.054;2023-10-13T03:19:34;17.23;;;7.32;;
77022;SDS011;65952;51.440;-2.054;2023-10-13T03:22:05;12.45;;;6.68;;
77022;SDS011;65952;51.440;-2.054;2023-10-13T03:24:42;19.25;;;7.70;;
77022;SDS011;65952;51.440;-2.054;2023-10-13T03:27:17;17.02;;;6.82;;
77022;SDS011;65952;51.440;-2.054;2023-10-13T03:29:48;16.73;;;6.85;;
77022;SDS011;65952;51.440;-2.054;2023-10-13T03:32:19;17.17;;;7.47;;
77022;SDS011;65952;51.440;-2.054;2023-10-13T03:34:45;15.82;;;6.32;;
77022;SDS011;65952;51.440;-2.054;2023-10-13T03:37:18;19.60;;;7.20;;
77022;SDS011;65952;51.440;-2.054;2023-10-13T03:40:04;15.82;;;7.15;;
77022;SDS011;65952;51.440;-2.054;2023-10-13T03:42:55;18.05;;;7.78;;
77022;SDS011;65952;51.440;-2.054;2023-10-13T03:48:15;18.60;;;7.87;;
77022;SDS011;65952;51.440;-2.054;2023-10-13T03:50:51;24.80;;;9.25;;
77022;SDS011;65952;51.440;-2.054;2023-10-13T03:53:35;18.10;;;7.80;;
77022;SDS011;65952;51.440;-2.054;2023-10-13T03:56:15;14.48;;;7.40;;
77022;SDS011;65952;51.440;-2.054;2023-10-13T03:58:48;22.40;;;7.75;;
77022;SDS011;65952;51.440;-2.054;2023-10-13T04:01:14;15.07;;;7.32;;
77022;SDS011;65952;51.440;-2.054;2023-10-13T04:03:42;21.42;;;8.13;;
77022;SDS011;65952;51.440;-2.054;2023-10-13T04:06:28;20.75;;;7.88;;
77022;SDS011;65952;51.440;-2.054;2023-10-13T04:09:16;21.17;;;7.75;;
77022;SDS011;65952;51.440;-2.054;2023-10-13T04:11:55;18.30;;;8.00;;
77022;SDS011;65952;51.440;-2.054;2023-10-13T04:14:27;16.98;;;6.75;;
77022;SDS011;65952;51.440;-2.054;2023-10-13T04:17:14;17.52;;;7.07;;
77022;SDS011;65952;51.440;-2.054;2023-10-13T04:19:41;18.75;;;7.72;;
77022;SDS011;65952;51.440;-2.054;2023-10-13T04:22:26;25.58;;;8.15;;
77022;SDS011;65952;51.440;-2.054;2023-10-13T04:25:27;26.33;;;7.85;;
77022;SDS011;65952;51.440;-2.054;2023-10-13T04:28:11;21.63;;;7.43;;
77022;SDS011;65952;51.440;-2.054;2023-10-13T04:30:38;21.58;;;7.53;;
77022;SDS011;65952;51.440;-2.054;2023-10-13T04:38:39;20.95;;;7.28;;
77022;SDS011;65952;51.440;-2.054;2023-10-13T04:44:01;17.52;;;7.80;;
77022;SDS011;65952;51.440;-2.054;2023-10-13T04:46:30;20.60;;;8.13;;
77022;SDS011;65952;51.440;-2.054;2023-10-13T04:49:25;21.60;;;7.20;;
77022;SDS011;65952;51.440;-2.054;2023-10-13T04:51:58;22.95;;;7.32;;
77022;SDS011;65952;51.440;-2.054;2023-10-13T04:54:41;18.42;;;6.22;;
77022;SDS011;65952;51.440;-2.054;2023-10-13T04:57:14;18.42;;;6.63;;
77022;SDS011;65952;51.440;-2.054;2023-10-13T04:59:59;17.77;;;6.85;;
77022;SDS011;65952;51.440;-2.054;2023-10-13T05:02:29;20.38;;;6.95;;
77022;SDS011;65952;51.440;-2.054;2023-10-13T05:05:10;18.63;;;6.25;;
77022;SDS011;65952;51.440;-2.054;2023-10-13T05:07:43;14.38;;;5.47;;
77022;SDS011;65952;51.440;-2.054;2023-10-13T05:10:28;14.75;;;5.22;;
77022;SDS011;65952;51.440;-2.054;2023-10-13T05:13:12;14.65;;;5.60;;
77022;SDS011;65952;51.440;-2.054;2023-10-13T05:15:56;17.80;;;6.00;;
77022;SDS011;65952;51.440;-2.054;2023-10-13T05:18:40;19.92;;;6.07;;
77022;SDS011;65952;51.440;-2.054;2023-10-13T05:21:24;15.13;;;5.95;;
77022;SDS011;65952;51.440;-2.054;2023-10-13T05:24:08;17.15;;;7.22;;
77022;SDS011;65952;51.440;-2.054;2023-10-13T05:26:52;20.85;;;5.65;;
77022;SDS011;65952;51.440;-2.054;2023-10-13T05:29:40;15.15;;;4.80;;
77022;SDS011;65952;51.440;-2.054;2023-10-13T05:32:25;14.48;;;5.65;;
77022;SDS011;65952;51.440;-2.054;2023-10-13T05:35:09;15.57;;;5.60;;
77022;SDS011;65952;51.440;-2.054;2023-10-13T05:37:53;13.32;;;5.30;;
77022;SDS011;65952;51.440;-2.054;2023-10-13T05:40:37;18.75;;;5.60;;
77022;SDS011;65952;51.440;-2.054;2023-10-13T05:43:21;16.38;;;5.88;;
77022;SDS011;65952;51.440;-2.054;2023-10-13T05:46:05;20.05;;;5.43;;
77022;SDS011;65952;51.440;-2.054;2023-10-13T05:48:50;17.42;;;5.45;;
77022;SDS011;65952;51.440;-2.054;2023-10-13T05:51:31;18.15;;;5.97;;
77022;SDS011;65952;51.440;-2.054;2023-10-13T05:53:58;20.52;;;6.18;;
77022;SDS011;65952;51.440;-2.054;2023-10-13T05:59:30;22.52;;;6.28;;
77022;SDS011;65952;51.440;-2.054;2023-10-13T06:02:15;17.88;;;6.20;;
77022;SDS011;65952;51.440;-2.054;2023-10-13T06:05:06;13.82;;;5.65;;
77022;SDS011;65952;51.440;-2.054;2023-10-13T06:07:52;18.50;;;6.20;;
77022;SDS011;65952;51.440;-2.054;2023-10-13T06:10:37;16.48;;;5.80;;
77022;SDS011;65952;51.440;-2.054;2023-10-13T06:13:21;20.95;;;5.80;;
77022;SDS011;65952;51.440;-2.054;2023-10-13T06:16:09;20.60;;;6.32;;
77022;SDS011;65952;51.440;-2.054;2023-10-13T06:18:54;16.88;;;5.57;;
77022;SDS011;65952;51.440;-2.054;2023-10-13T06:21:39;14.70;;;5.85;;
77022;SDS011;65952;51.440;-2.054;2023-10-13T06:24:23;20.35;;;5.90;;
77022;SDS011;65952;51.440;-2.054;2023-10-13T06:27:08;18.15;;;5.68;;
77022;SDS011;65952;51.440;-2.054;2023-10-13T06:29:52;17.75;;;5.90;;
77022;SDS011;65952;51.440;-2.054;2023-10-13T06:32:20;18.23;;;5.70;;
77022;SDS011;65952;51.440;-2.054;2023-10-13T06:34:50;18.33;;;5.00;;
77022;SDS011;65952;51.440;-2.054;2023-10-13T06:37:22;18.45;;;5.78;;
77022;SDS011;65952;51.440;-2.054;2023-10-13T06:39:51;12.95;;;5.35;;
77022;SDS011;65952;51.440;-2.054;2023-10-13T06:42:21;15.00;;;4.93;;
77022;SDS011;65952;51.440;-2.054;2023-10-13T06:44:53;15.45;;;5.18;;
77022;SDS011;65952;51.440;-2.054;2023-10-13T06:47:20;17.25;;;5.25;;
77022;SDS011;65952;51.440;-2.054;2023-10-13T06:49:46;12.50;;;4.40;;
77022;SDS011;65952;51.440;-2.054;2023-10-13T06:52:13;15.18;;;5.75;;
77022;SDS011;65952;51.440;-2.054;2023-10-13T06:54:41;14.88;;;5.03;;
77022;SDS011;65952;51.440;-2.054;2023-10-13T06:57:08;12.38;;;4.43;;
77022;SDS011;65952;51.440;-2.054;2023-10-13T06:59:39;14.63;;;4.90;;
77022;SDS011;65952;51.440;-2.054;2023-10-13T07:02:05;11.98;;;4.40;;
77022;SDS011;65952;51.440;-2.054;2023-10-13T07:04:33;10.48;;;4.78;;
77022;SDS011;65952;51.440;-2.054;2023-10-13T07:06:59;13.93;;;5.32;;
77022;SDS011;65952;51.440;-2.054;2023-10-13T07:09:25;13.82;;;4.90;;
77022;SDS011;65952;51.440;-2.054;2023-10-13T07:12:01;12.02;;;4.47;;
77022;SDS011;65952;51.440;-2.054;2023-10-13T07:14:28;10.73;;;4.45;;
77022;SDS011;65952;51.440;-2.054;2023-10-13T07:16:57;13.57;;;4.57;;
77022;SDS011;65952;51.440;-2.054;2023-10-13T07:19:25;12.07;;;4.50;;
77022;SDS011;65952;51.440;-2.054;2023-10-13T07:21:57;16.98;;;4.55;;
77022;SDS011;65952;51.440;-2.054;2023-10-13T07:24:27;12.63;;;4.70;;
77022;SDS011;65952;51.440;-2.054;2023-10-13T07:27:05;14.60;;;4.00;;
77022;SDS011;65952;51.440;-2.054;2023-10-13T07:29:31;16.08;;;4.68;;
77022;SDS011;65952;51.440;-2.054;2023-10-13T07:31:59;12.27;;;4.25;;
77022;SDS011;65952;51.440;-2.054;2023-10-13T07:34:28;17.77;;;4.63;;
77022;SDS011;65952;51.440;-2.054;2023-10-13T07:36:57;17.27;;;4.88;;
77022;SDS011;65952;51.440;-2.054;2023-10-13T07:39:29;17.65;;;4.80;;
77022;SDS011;65952;51.440;-2.054;2023-10-13T07:41:59;15.82;;;5.13;;
77022;SDS011;65952;51.440;-2.054;2023-10-13T07:44:35;16.23;;;5.43;;
77022;SDS011;65952;51.440;-2.054;2023-10-13T07:47:02;15.10;;;5.30;;
77022;SDS011;65952;51.440;-2.054;2023-10-13T07:49:29;18.65;;;5.13;;
77022;SDS011;65952;51.440;-2.054;2023-10-13T07:51:57;13.05;;;4.93;;
77022;SDS011;65952;51.440;-2.054;2023-10-13T07:54:41;15.13;;;5.53;;
77022;SDS011;65952;51.440;-2.054;2023-10-13T07:57:07;15.25;;;5.65;;
77022;SDS011;65952;51.440;-2.054;2023-10-13T07:59:33;14.45;;;5.47;;
77022;SDS011;65952;51.440;-2.054;2023-10-13T08:02:00;19.00;;;6.55;;
77022;SDS011;65952;51.440;-2.054;2023-10-13T08:04:37;18.67;;;5.85;;
77022;SDS011;65952;51.440;-2.054;2023-10-13T08:07:03;15.13;;;5.70;;
77022;SDS011;65952;51.440;-2.054;2023-10-13T08:09:41;19.40;;;6.25;;
77022;SDS011;65952;51.440;-2.054;2023-10-13T08:12:08;17.33;;;5.40;;
77022;SDS011;65952;51.440;-2.054;2023-10-13T08:14:36;14.05;;;5.35;;
77022;SDS011;65952;51.440;-2.054;2023-10-13T08:17:04;11.32;;;4.60;;
77022;SDS011;65952;51.440;-2.054;2023-10-13T08:19:37;12.30;;;4.43;;
77022;SDS011;65952;51.440;-2.054;2023-10-13T08:22:06;15.82;;;5.18;;
77022;SDS011;65952;51.440;-2.054;2023-10-13T08:24:46;15.55;;;5.38;;
77022;SDS011;65952;51.440;-2.054;2023-10-13T08:27:13;11.90;;;4.70;;
77022;SDS011;65952;51.440;-2.054;2023-10-13T08:29:39;17.45;;;4.97;;
77022;SDS011;65952;51.440;-2.054;2023-10-13T08:32:23;14.32;;;4.28;;
77022;SDS011;65952;51.440;-2.054;2023-10-13T08:34:51;14.95;;;4.80;;
77022;SDS011;65952;51.440;-2.054;2023-10-13T08:37:17;13.25;;;4.95;;
77022;SDS011;65952;51.440;-2.054;2023-10-13T08:39:58;11.25;;;4.53;;
77022;SDS011;65952;51.440;-2.054;2023-10-13T08:47:59;16.00;;;5.20;;
77022;SDS011;65952;51.440;-2.054;2023-10-13T08:50:38;12.55;;;4.38;;
77022;SDS011;65952;51.440;-2.054;2023-10-13T08:53:27;14.15;;;4.45;;
77022;SDS011;65952;51.440;-2.054;2023-10-13T08:56:03;11.60;;;4.45;;
77022;SDS011;65952;51.440;-2.054;2023-10-13T08:58:42;11.70;;;4.47;;
77022;SDS011;65952;51.440;-2.054;2023-10-13T09:01:34;10.35;;;4.35;;
77022;SDS011;65952;51.440;-2.054;2023-10-13T09:04:00;15.57;;;4.40;;
77022;SDS011;65952;51.440;-2.054;2023-10-13T09:06:46;13.13;;;4.70;;
77022;SDS011;65952;51.440;-2.054;2023-10-13T09:09:49;8.63;;;3.88;;
77022;SDS011;65952;51.440;-2.054;2023-10-13T09:12:19;11.38;;;3.95;;
77022;SDS011;65952;51.440;-2.054;2023-10-13T09:14:54;11.10;;;3.88;;
77022;SDS011;65952;51.440;-2.054;2023-10-13T09:17:29;14.77;;;4.50;;
77022;SDS011;65952;51.440;-2.054;2023-10-13T09:19:55;9.38;;;3.75;;
77022;SDS011;65952;51.440;-2.054;2023-10-13T09:22:27;8.85;;;3.90;;
77022;SDS011;65952;51.440;-2.054;2023-10-13T09:25:00;9.93;;;4.00;;
77022;SDS011;65952;51.440;-2.054;2023-10-13T09:27:27;11.00;;;3.65;;
77022;SDS011;65952;51.440;-2.054;2023-10-13T09:29:58;10.73;;;3.67;;
77022;SDS011;65952;51.440;-2.054;2023-10-13T09:32:35;8.82;;;3.90;;
77022;SDS011;65952;51.440;-2.054;2023-10-13T09:35:19;11.55;;;3.60;;
77022;SDS011;65952;51.440;-2.054;2023-10-13T09:37:48;10.60;;;3.65;;
77022;SDS011;65952;51.440;-2.054;2023-10-13T09:40:15;6.45;;;3.30;;
77022;SDS011;65952;51.440;-2.054;2023-10-13T09:42:52;7.10;;;3.15;;
77022;SDS011;65952;51.440;-2.054;2023-10-13T09:45:28;6.50;;;3.00;;
77022;SDS011;65952;51.440;-2.054;2023-10-13T09:48:01;7.35;;;3.50;;
77022;SDS011;65952;51.440;-2.054;2023-10-13T09:50:31;7.10;;;3.90;;
77022;SDS011;65952;51.440;-2.054;2023-10-13T09:53:02;7.53;;;3.22;;
77022;SDS011;65952;51.440;-2.054;2023-10-13T09:55:35;7.40;;;3.40;;
77022;SDS011;65952;51.440;-2.054;2023-10-13T09:58:07;10.50;;;3.45;;
77022;SDS011;65952;51.440;-2.054;2023-10-13T10:00:43;8.80;;;3.30;;
77022;SDS011;65952;51.440;-2.054;2023-10-13T10:03:21;8.48;;;3.30;;
77022;SDS011;65952;51.440;-2.054;2023-10-13T10:05:59;7.55;;;3.40;;
77022;SDS011;65952;51.440;-2.054;2023-10-13T10:08:30;11.02;;;3.53;;
77022;SDS011;65952;51.440;-2.054;2023-10-13T10:16:43;10.05;;;3.08;;
77022;SDS011;65952;51.440;-2.054;2023-10-13T10:19:24;8.77;;;3.08;;
77022;SDS011;65952;51.440;-2.054;2023-10-13T10:22:00;8.77;;;3.10;;
77022;SDS011;65952;51.440;-2.054;2023-10-13T10:24:30;6.97;;;2.97;;
77022;SDS011;65952;51.440;-2.054;2023-10-13T10:26:56;10.00;;;3.00;;
77022;SDS011;65952;51.440;-2.054;2023-10-13T10:29:21;9.23;;;3.42;;
77022;SDS011;65952;51.440;-2.054;2023-10-13T10:31:47;8.27;;;3.55;;
77022;SDS011;65952;51.440;-2.054;2023-10-13T10:34:13;9.00;;;3.38;;
77022;SDS011;65952;51.440;-2.054;2023-10-13T10:36:47;8.40;;;3.10;;
77022;SDS011;65952;51.440;-2.054;2023-10-13T10:39:18;7.85;;;3.40;;
77022;SDS011;65952;51.440;-2.054;2023-10-13T10:41:43;6.82;;;2.60;;
77022;SDS011;65952;51.440;-2.054;2023-10-13T10:44:17;8.27;;;3.10;;
77022;SDS011;65952;51.440;-2.054;2023-10-13T10:46:51;7.32;;;2.83;;
77022;SDS011;65952;51.440;-2.054;2023-10-13T10:49:23;9.77;;;3.03;;
77022;SDS011;65952;51.440;-2.054;2023-10-13T10:51:56;7.43;;;3.08;;
77022;SDS011;65952;51.440;-2.054;2023-10-13T10:54:26;10.48;;;3.17;;
77022;SDS011;65952;51.440;-2.054;2023-10-13T10:56:56;9.60;;;3.40;;
77022;SDS011;65952;51.440;-2.054;2023-10-13T10:59:42;7.35;;;2.88;;
77022;SDS011;65952;51.440;-2.054;2023-10-13T11:02:07;7.13;;;2.80;;
77022;SDS011;65952;51.440;-2.054;2023-10-13T11:04:34;7.15;;;2.75;;
77022;SDS011;65952;51.440;-2.054;2023-10-13T11:07:00;8.68;;;3.35;;
77022;SDS011;65952;51.440;-2.054;2023-10-13T11:09:27;8.10;;;2.83;;
77022;SDS011;65952;51.440;-2.054;2023-10-13T11:14:31;7.25;;;3.00;;
77022;SDS011;65952;51.440;-2.054;2023-10-13T11:16:57;8.48;;;3.10;;
77022;SDS011;65952;51.440;-2.054;2023-10-13T11:19:43;7.65;;;3.10;;
77022;SDS011;65952;51.440;-2.054;2023-10-13T11:22:12;7.63;;;2.80;;
77022;SDS011;65952;51.440;-2.054;2023-10-13T11:25:04;8.90;;;3.05;;
77022;SDS011;65952;51.440;-2.054;2023-10-13T11:27:40;7.55;;;3.17;;
77022;SDS011;65952;51.440;-2.054;2023-10-13T11:30:20;7.88;;;2.90;;
77022;SDS011;65952;51.440;-2.054;2023-10-13T11:33:07;7.88;;;3.10;;
77022;SDS011;65952;51.440;-2.054;2023-10-13T11:35:34;9.02;;;3.40;;
77022;SDS011;65952;51.440;-2.054;2023-10-13T11:38:18;9.43;;;3.05;;
77022;SDS011;65952;51.440;-2.054;2023-10-13T11:40:55;8.60;;;2.83;;
77022;SDS011;65952;51.440;-2.054;2023-10-13T11:46:26;7.80;;;3.65;;
77022;SDS011;65952;51.440;-2.054;2023-10-13T11:49:04;9.80;;;3.55;;
77022;SDS011;65952;51.440;-2.054;2023-10-13T11:51:40;7.97;;;3.20;;
77022;SDS011;65952;51.440;-2.054;2023-10-13T11:54:10;12.73;;;4.00;;
77022;SDS011;65952;51.440;-2.054;2023-10-13T11:56:35;8.80;;;3.10;;
77022;SDS011;65952;51.440;-2.054;2023-10-13T11:59:03;8.98;;;3.63;;
77022;SDS011;65952;51.440;-2.054;2023-10-13T12:01:30;8.07;;;3.00;;
77022;SDS011;65952;51.440;-2.054;2023-10-13T12:04:17;8.25;;;3.08;;
77022;SDS011;65952;51.440;-2.054;2023-10-13T12:06:57;7.55;;;2.90;;
77022;SDS011;65952;51.440;-2.054;2023-10-13T12:09:42;7.28;;;3.13;;
77022;SDS011;65952;51.440;-2.054;2023-10-13T12:12:24;8.40;;;3.13;;
77022;SDS011;65952;51.440;-2.054;2023-10-13T12:14:50;6.78;;;2.80;;
77022;SDS011;65952;51.440;-2.054;2023-10-13T12:17:20;11.27;;;3.05;;
77022;SDS011;65952;51.440;-2.054;2023-10-13T12:20:07;6.13;;;2.83;;
77022;SDS011;65952;51.440;-2.054;2023-10-13T12:22:36;9.63;;;2.95;;
77022;SDS011;65952;51.440;-2.054;2023-10-13T12:25:07;7.05;;;2.67;;
77022;SDS011;65952;51.440;-2.054;2023-10-13T12:27:53;9.18;;;2.58;;
77022;SDS011;65952;51.440;-2.054;2023-10-13T12:30:23;8.95;;;2.80;;
77022;SDS011;65952;51.440;-2.054;2023-10-13T12:33:13;7.10;;;3.10;;
77022;SDS011;65952;51.440;-2.054;2023-10-13T12:35:41;10.15;;;3.25;;
77022;SDS011;65952;51.440;-2.054;2023-10-13T12:38:23;7.47;;;2.70;;
77022;SDS011;65952;51.440;-2.054;2023-10-13T12:41:04;8.18;;;2.67;;
77022;SDS011;65952;51.440;-2.054;2023-10-13T12:43:49;7.95;;;3.15;;
77022;SDS011;65952;51.440;-2.054;2023-10-13T12:46:32;9.93;;;2.63;;
77022;SDS011;65952;51.440;-2.054;2023-10-13T12:49:16;7.03;;;2.80;;
77022;SDS011;65952;51.440;-2.054;2023-10-13T12:52:00;7.65;;;2.50;;
77022;SDS011;65952;51.440;-2.054;2023-10-13T12:54:26;6.05;;;2.30;;
77022;SDS011;65952;51.440;-2.054;2023-10-13T12:57:00;6.70;;;3.20;;
77022;SDS011;65952;51.440;-2.054;2023-10-13T12:59:25;7.03;;;2.30;;
77022;SDS011;65952;51.440;-2.054;2023-10-13T13:01:54;7.82;;;2.42;;
77022;SDS011;65952;51.440;-2.054;2023-10-13T13:04:19;9.15;;;2.30;;
77022;SDS011;65952;51.440;-2.054;2023-10-13T13:06:49;4.68;;;2.30;;
77022;SDS011;65952;51.440;-2.054;2023-10-13T13:09:15;5.78;;;2.50;;
77022;SDS011;65952;51.440;-2.054;2023-10-13T13:11:50;5.43;;;2.15;;
77022;SDS011;65952;51.440;-2.054;2023-10-13T13:14:16;5.13;;;2.08;;
77022;SDS011;65952;51.440;-2.054;2023-10-13T13:16:41;5.60;;;1.90;;
77022;SDS011;65952;51.440;-2.054;2023-10-13T13:19:07;5.55;;;1.90;;
77022;SDS011;65952;51.440;-2.054;2023-10-13T13:21:37;3.95;;;2.00;;
77022;SDS011;65952;51.440;-2.054;2023-10-13T13:24:03;3.42;;;1.80;;
77022;SDS011;65952;51.440;-2.054;2023-10-13T13:26:30;4.22;;;1.90;;
77022;SDS011;65952;51.440;-2.054;2023-10-13T13:28:58;4.30;;;1.83;;
77022;SDS011;65952;51.440;-2.054;2023-10-13T13:31:24;4.50;;;2.10;;
77022;SDS011;65952;51.440;-2.054;2023-10-13T13:33:54;5.75;;;1.98;;
77022;SDS011;65952;51.440;-2.054;2023-10-13T13:36:20;4.82;;;2.00;;
77022;SDS011;65952;51.440;-2.054;2023-10-13T13:38:47;5.43;;;2.28;;
77022;SDS011;65952;51.440;-2.054;2023-10-13T13:41:17;6.38;;;2.10;;
77022;SDS011;65952;51.440;-2.054;2023-10-13T13:46:18;4.38;;;1.95;;
77022;SDS011;65952;51.440;-2.054;2023-10-13T13:48:52;6.15;;;3.00;;
77022;SDS011;65952;51.440;-2.054;2023-10-13T13:51:23;4.85;;;2.30;;
77022;SDS011;65952;51.440;-2.054;2023-10-13T13:53:52;5.13;;;2.22;;
77022;SDS011;65952;51.440;-2.054;2023-10-13T13:56:19;6.45;;;2.08;;
77022;SDS011;65952;51.440;-2.054;2023-10-13T13:58:45;4.07;;;2.00;;
77022;SDS011;65952;51.440;-2.054;2023-10-13T14:01:11;5.80;;;2.20;;
77022;SDS011;65952;51.440;-2.054;2023-10-13T14:03:47;5.40;;;1.90;;
77022;SDS011;65952;51.440;-2.054;2023-10-13T14:06:16;4.93;;;2.03;;
77022;SDS011;65952;51.440;-2.054;2023-10-13T14:08:48;4.13;;;2.22;;
77022;SDS011;65952;51.440;-2.054;2023-10-13T14:11:20;10.20;;;2.60;;
77022;SDS011;65952;51.440;-2.054;2023-10-13T14:14:04;5.28;;;2.10;;
77022;SDS011;65952;51.440;-2.054;2023-10-13T14:16:52;4.82;;;2.30;;
77022;SDS011;65952;51.440;-2.054;2023-10-13T14:19:18;4.70;;;2.00;;
77022;SDS011;65952;51.440;-2.054;2023-10-13T14:21:52;6.22;;;2.13;;
77022;SDS011;65952;51.440;-2.054;2023-10-13T14:24:18;4.88;;;2.00;;
77022;SDS011;65952;51.440;-2.054;2023-10-13T14:26:52;4.55;;;2.10;;
77022;SDS011;65952;51.440;-2.054;2023-10-13T14:29:18;2.97;;;1.70;;
77022;SDS011;65952;51.440;-2.054;2023-10-13T14:31:44;4.50;;;1.80;;
77022;SDS011;65952;51.440;-2.054;2023-10-13T14:34:09;3.55;;;1.88;;
77022;SDS011;65952;51.440;-2.054;2023-10-13T14:36:36;5.15;;;2.63;;
77022;SDS011;65952;51.440;-2.054;2023-10-13T14:39:02;4.80;;;2.30;;
77022;SDS011;65952;51.440;-2.054;2023-10-13T14:41:34;4.25;;;1.98;;
77022;SDS011;65952;51.440;-2.054;2023-10-13T14:44:00;4.55;;;2.00;;
77022;SDS011;65952;51.440;-2.054;2023-10-13T14:46:30;4.72;;;1.90;;
77022;SDS011;65952;51.440;-2.054;2023-10-13T14:48:56;4.32;;;2.20;;
77022;SDS011;65952;51.440;-2.054;2023-10-13T14:51:21;3.65;;;2.00;;
77022;SDS011;65952;51.440;-2.054;2023-10-13T14:53:47;6.15;;;2.28;;
77022;SDS011;65952;51.440;-2.054;2023-10-13T14:56:14;4.93;;;2.00;;
77022;SDS011;65952;51.440;-2.054;2023-10-13T14:58:40;5.80;;;2.38;;
77022;SDS011;65952;51.440;-2.054;2023-10-13T15:01:12;4.32;;;2.42;;
77022;SDS011;65952;51.440;-2.054;2023-10-13T15:03:43;4.82;;;1.90;;
77022;SDS011;65952;51.440;-2.054;2023-10-13T15:06:18;4.28;;;1.85;;
77022;SDS011;65952;51.440;-2.054;2023-10-13T15:08:50;3.25;;;1.77;;
77022;SDS011;65952;51.440;-2.054;2023-10-13T15:11:18;2.97;;;1.60;;
77022;SDS011;65952;51.440;-2.054;2023-10-13T15:13:44;2.55;;;1.65;;
77022;SDS011;65952;51.440;-2.054;2023-10-13T15:16:16;2.95;;;1.60;;
77022;SDS011;65952;51.440;-2.054;2023-10-13T15:18:46;3.90;;;1.50;;
77022;SDS011;65952;51.440;-2.054;2023-10-13T15:21:25;2.92;;;1.70;;
77022;SDS011;65952;51.440;-2.054;2023-10-13T15:23:52;3.53;;;1.80;;
77022;SDS011;65952;51.440;-2.054;2023-10-13T15:26:18;2.90;;;1.55;;
77022;SDS011;65952;51.440;-2.054;2023-10-13T15:28:46;2.60;;;1.50;;
77022;SDS011;65952;51.440;-2.054;2023-10-13T15:31:18;2.75;;;1.55;;
77022;SDS011;65952;51.440;-2.054;2023-10-13T15:33:59;4.93;;;1.95;;
77022;SDS011;65952;51.440;-2.054;2023-10-13T15:36:26;3.40;;;1.73;;
77022;SDS011;65952;51.440;-2.054;2023-10-13T15:38:51;3.72;;;1.60;;